• Join FlightAware (Why Join?)
  • Login
  • US Flag 
08:41AM EDT


 

Airport Tracker/Info


-or-


 

Live Flight TrackerFlight Track Log ✈ N273SK ✈ 24-Apr-2013 ✈ KBUF - KDTW

Flight Track Log - Related Links

Times and Time Zones

All times are in EDT time to prevent confusion due to time zone crossing. See the N273SK flight status page for this flight to view local times or setup timezone preferences in your user account.

Time Position Orientation Groundspeed Altitude Reporting Facility
EDT Latitude Longitude Course Direction KTS MPH feet Rate Location/Type
04:10PM 42.9333 -78.7500 246° West 153 176 1,500  Level Buffalo TRACON
04:10PM 42.9167 -78.7667 216° Southwest 157 181 2,600 2,220 Climbing Buffalo TRACON
04:11PM 42.9333 -78.8333 289° West 227 261 4,900 2,100 Climbing Buffalo TRACON
04:13PM 42.8667 -79.0548 270° West  Level FlightAware Approximate
04:14PM 42.8424 -79.1652 236° Southwest  Level FlightAware Approximate
04:14PM 42.9100 -79.0014 259° West 223 257 9,600  Level Cleveland Center
04:15PM 42.8246 -79.2761 246° West  Level FlightAware Approximate
04:15PM 42.8858 -79.0731 245° Southwest 220 253 11,700  Level Cleveland Center
04:16PM 42.8578 -79.1586 246° West 227 261 12,700 1,140 Climbing Cleveland Center
04:17PM 42.8422 -79.2553 258° West 252 290 14,000 1,080 Climbing Cleveland Center
04:18PM 42.8289 -79.3575 260° West 267 307 14,900 900 Climbing Cleveland Center
04:19PM 42.8008 -79.4569 249° West 281 323 15,900 1,080 Climbing Cleveland Center
04:20PM 42.7450 -79.5231 221° Southwest 270 311 17,100 1,500 Climbing Cleveland Center
04:21PM 42.6933 -79.5803 219° Southwest 252 290 19,000 1,380 Climbing Cleveland Center
04:22PM 42.6858 -79.6822 264° West 241 277 19,900 480 Climbing Cleveland Center
04:23PM 42.6889 -79.7950 272° West 284 327 20,000 60 Climbing Cleveland Center
04:24PM 42.6917 -79.9167 272° West 301 346 20,100  Climbing Cleveland Center
04:25PM 42.6903 -80.0464 269° West 329 379 20,000 -60 Descending Cleveland Center
04:26PM 42.6931 -80.1792 272° West 347 399 20,000  Level Cleveland Center
04:27PM 42.6975 -80.3064 273° West 347 399 20,000  Level Cleveland Center
04:28PM 42.6997 -80.4392 271° West 347 399 20,000  Level Cleveland Center
04:29PM 42.7000 -80.5633 270° West 342 394 20,000  Level Cleveland Center
04:30PM 42.6894 -80.6792 263° West 342 394 20,100  Climbing Cleveland Center
04:31PM 42.6789 -80.8006 263° West 342 394 20,000 -120 Descending Cleveland Center
04:32PM 42.6661 -80.9192 262° West 329 379 19,900 -60 Descending Cleveland Center
04:33PM 42.6572 -81.0406 264° West 329 379 19,900  Level Cleveland Center
04:34PM 42.6442 -81.1533 261° West 319 367 20,000  Climbing Cleveland Center
04:35PM 42.6353 -81.2717 264° West 309 356 20,000  Level Cleveland Center
04:36PM 42.6242 -81.3817 262° West 302 348 20,000 -240 Level Cleveland Center
04:37PM 42.6150 -81.4889 263° West 291 335 19,600 -840 Descending Cleveland Center
04:38PM 42.6017 -81.6014 261° West 280 322 18,400 -1,200 Descending Cleveland Center
04:39PM 42.5922 -81.7028 263° West 274 315 17,300 -960 Descending Cleveland Center
04:40PM 42.5850 -81.7931 264° West 274 315 16,500 -1,140 Descending Cleveland Center
04:41PM 42.5736 -81.8914 261° West 274 315 15,100 -1,260 Descending Cleveland Center
04:42PM 42.5642 -81.9869 262° West 269 310 14,000 -1,200 Descending Cleveland Center
04:43PM 42.5567 -82.0769 264° West 263 303 12,800 -1,020 Descending Cleveland Center
04:44PM 42.5472 -82.1669 262° West 250 288 12,000 -600 Descending Cleveland Center
04:44PM 42.5444 -82.2150 266° West 243 280 12,000 60 Level Cleveland Center
04:45PM 42.5372 -82.2767 261° West 261 300 12,100 -120 Climbing Cleveland Center
04:46PM 42.5258 -82.3581 259° West 256 295 11,900 -120 Descending Cleveland Center
04:47PM 42.5158 -82.4508 262° West 256 295 11,900  Level Cleveland Center
04:48PM 42.5081 -82.5492 264° West 248 285 12,000  Climbing Cleveland Center
04:49PM 42.4794 -82.6269 244° Southwest 256 295 12,000  Level Cleveland Center
04:50PM 42.4467 -82.7161 244° Southwest 261 300 12,000  Level Cleveland Center
04:51PM 42.4136 -82.8106 245° Southwest 259 298 12,000  Level Cleveland Center
04:52PM 42.3850 -82.8883 244° Southwest 261 300 12,000  Level Cleveland Center
04:53PM 42.3542 -82.9742 244° Southwest 256 295 12,000  Level Cleveland Center
04:54PM 42.3297 -83.0436 245° Southwest 236 272 12,000  Level Cleveland Center
04:55PM 42.3144 -83.1281 256° West 209 241 12,000  Level FAA TRACON SMA TRACON (SMA)
04:55PM 42.3042 -83.1550 243° Southwest 222 255 12,000  Level FAA TRACON SMA TRACON (SMA)
04:55PM 42.2900 -83.1658 209° Southwest 218 251 12,000  Level FAA TRACON SMA TRACON (SMA)
04:56PM 42.2714 -83.1794 208° Southwest 220 253 12,000 -480 Level FAA TRACON SMA TRACON (SMA)
04:56PM 42.2506 -83.1939 207° Southwest 217 250 11,700 -1,200 Descending FAA TRACON SMA TRACON (SMA)
04:56PM 42.2369 -83.2044 210° Southwest 218 251 11,200 -1,740 Descending FAA TRACON SMA TRACON (SMA)
04:57PM 42.2178 -83.2178 207° Southwest 216 249 10,600 -1,500 Descending FAA TRACON SMA TRACON (SMA)
04:57PM 42.2017 -83.2311 212° Southwest 217 250 10,200 -1,680 Descending FAA TRACON SMA TRACON (SMA)
04:57PM 42.1811 -83.2464 209° Southwest 218 251 9,500 -1,980 Descending FAA TRACON SMA TRACON (SMA)
04:58PM 42.1647 -83.2594 211° Southwest 221 254 8,900 -1,800 Descending FAA TRACON SMA TRACON (SMA)
04:58PM 42.1475 -83.2722 209° Southwest 226 260 8,300 -2,040 Descending FAA TRACON SMA TRACON (SMA)
04:58PM 42.1256 -83.2881 208° Southwest 235 270 7,600 -1,860 Descending FAA TRACON SMA TRACON (SMA)
04:59PM 42.1067 -83.3019 209° Southwest 245 282 7,100 -900 Descending FAA TRACON SMA TRACON (SMA)
04:59PM 42.0908 -83.3144 210° Southwest 250 288 7,000 -300 Descending FAA TRACON SMA TRACON (SMA)
04:59PM 42.0703 -83.3286 207° Southwest 234 269 6,900 -780 Descending FAA TRACON SMA TRACON (SMA)
05:00PM 42.0494 -83.3431 207° Southwest 218 251 6,500 -1,080 Descending FAA TRACON SMA TRACON (SMA)
05:00PM 42.0344 -83.3533 207° Southwest 217 250 6,200 -900 Descending FAA TRACON SMA TRACON (SMA)
05:01PM 42.0108 -83.3614 194° South 213 245 5,800 -1,020 Descending FAA TRACON SMA TRACON (SMA)
05:01PM 41.9839 -83.3617 180° South 210 242 5,400 -1,200 Descending FAA TRACON SMA TRACON (SMA)
05:01PM 41.9583 -83.3653 186° South 195 224 4,800 -1,020 Descending FAA TRACON SMA TRACON (SMA)
05:02PM 41.9531 -83.3861 251° West 157 181 4,500 -780 Descending FAA TRACON SMA TRACON (SMA)
05:02PM 41.9608 -83.3967 315° West 151 174 4,300 -780 Descending FAA TRACON SMA TRACON (SMA)
05:02PM 41.9758 -83.4086 329° Northwest 153 176 4,000 -480 Descending FAA TRACON SMA TRACON (SMA)
05:03PM 41.9881 -83.4181 330° Northwest 161 185 4,000  Level FAA TRACON SMA TRACON (SMA)
05:03PM 41.9994 -83.4275 328° Northwest 169 194 4,000  Level FAA TRACON SMA TRACON (SMA)